KLWT/LWT METAR and TAF weather

Enter ICAO airport designator
Station Type Date Time Source
KLWT METAR 2022/12/05 15:14 UTC NOAA

KLWT 051514Z AUTO 00000KT 3SM -SN BR SCT020 OVC037 M08/M10 A2982 RMK AO2 P0000 T10831100


Station Type Date Time Source
KLWT Decoded METAR 2022/12/05 15:14 UTC NOAA

LEWISTOWN MUNICIPAL AIRPORT , MT, United States (KLWT) 47-03N 109-27W
Dec 05, 2022 - 10:14 AM EST / 2022.12.05 1514 UTC
Wind: Calm:0
Visibility: 3 mile(s):0
Sky conditions: overcast
Weather: light snow; mist
Precipitation last hour: A trace
Temperature: 17.1 F (-8.3 C)
Dew Point: 14.0 F (-10.0 C)
Relative Humidity: 87%
Pressure (altimeter): 29.82 in. Hg (1009 hPa)
ob: KLWT 051514Z AUTO 00000KT 3SM -SN BR SCT020 OVC037 M08/M10 A2982 RMK AO2 P0000 T10831100
cycle: 15

Station Type Date Time Source
KLWT TAF 2022/12/05 12:34 UTC NOAA

TAF KLWT 051132Z 0512/0612 VRB04KT 5SM -SN BR SCT020 OVC035
TEMPO 0512/0516 3SM -SN BR BKN015
FM051800 VRB04KT P6SM SCT015 BKN025 PROB30 0600/0603 4SM -SN BR OVC015
FM060300 28011G20KT P6SM VCSH SCT020 OVC035 WS020/28045KT PROB30 0603/0606 3SM -SN BR OVC015
FM060600 31013G21KT 1/2SM SN BLSN SCT008 OVC015

Example: see airport list